Grey Shark — 3ELV4 — position and weather

sailwx.info

Track history (hours):
 
Tides and Currents Weather Stations Pressure Air Temp Water Temp Dewpoint Dewpoint Depression Visibility Wind Speed Wind Dir Waves Ship Positions

Grey Shark

Last reported at 2015-Sep-15 13:29 UTC. Time now 2016-May-30 16:28 UTC.
Position N 38°37' W 073°54'.
Warning: this ship's position is months out of date.

Length 110 m; draft 5.1 m.

Type: Cargo ship. MMSI: 371494000.

Date/timePositionNaut miles runAvg speedWind from/ knotsBaromVisibWave heightAir tempDewpointWater temp
2015-Sep-15 13:29N 38°37' W 073°54'12 9.5
2015-Sep-15 12:15N 38°49' W 073°54'6 8.6
2015-Sep-15 11:31N 38°55' W 073°54'10 8.6
2015-Sep-15 10:23N 39°05' W 073°53'10 9.0
2015-Sep-15 09:14N 39°15' W 073°53'6 9.1
2015-Sep-15 08:33N 39°21' W 073°53'9 9.1
2015-Sep-15 07:33N 39°30' W 073°52'9 9.1
2015-Sep-15 06:33N 39°40' W 073°51'9 9.1
2015-Sep-15 05:33N 39°49' W 073°51'9 9.0
2015-Sep-15 04:33N 39°58' W 073°50'20 9.0
2015-Sep-15 02:21N 40°18' W 073°49'7 8.9
2015-Sep-15 01:33N 40°25' W 073°49'9 8.6
2015-Sep-15 00:33N 40°30' W 073°58'8 7.6
2015-Sep-14 23:33N 40°37' W 074°03'4 3.6
2015-Sep-14 22:27N 40°40' W 074°05'0 0.0
2015-Sep-14 21:31N 40°40' W 074°05'0 0.0
2015-Sep-14 20:29N 40°40' W 074°05'0 0.0
2015-Sep-14 19:33N 40°40' W 074°05'0 0.0
2015-Sep-14 18:33N 40°40' W 074°05'0 0.0
2015-Sep-14 17:32N 40°40' W 074°05'0 0.0
2015-Sep-14 16:30N 40°40' W 074°05'0 0.0
2015-Sep-14 15:34N 40°40' W 074°05'0 0.0
2015-Sep-14 14:29N 40°40' W 074°05'0 0.0
2015-Sep-14 13:32N 40°40' W 074°05'0 0.0
2015-Sep-14 12:26N 40°40' W 074°05'0 0.0
2015-Sep-14 11:33N 40°40' W 074°05'0 0.0
2015-Sep-14 10:32N 40°40' W 074°05'0 0.0
2015-Sep-14 09:32N 40°40' W 074°05'0 0.0
2015-Sep-14 08:33N 40°40' W 074°05'0 0.0
2015-Sep-14 07:31N 40°40' W 074°05'0 0.0
2015-Sep-14 06:27N 40°40' W 074°05'0 0.0
2015-Sep-14 05:31N 40°40' W 074°05'0 0.0
2015-Sep-14 04:27N 40°40' W 074°05'0 0.0
2015-Sep-14 03:31N 40°40' W 074°05'0 0.0
2015-Sep-14 02:32N 40°40' W 074°05'0 0.0
2015-Sep-14 01:32N 40°40' W 074°05'0 0.0
2015-Sep-14 00:33N 40°40' W 074°05'0 0.0
2015-Sep-13 23:30N 40°40' W 074°05'0 0.0
2015-Sep-13 22:26N 40°40' W 074°05'0 0.0
2015-Sep-13 21:32N 40°40' W 074°05'0 0.0
2015-Sep-13 20:30N 40°40' W 074°05'0 0.0
2015-Sep-13 19:32N 40°40' W 074°05'0 0.0
2015-Sep-13 18:29N 40°40' W 074°05'0 0.0
2015-Sep-13 17:30N 40°40' W 074°05'0 0.0
2015-Sep-13 16:32N 40°40' W 074°05'0 0.0
2015-Sep-13 15:31N 40°40' W 074°05'0 0.0
2015-Sep-13 14:26N 40°40' W 074°05'0 0.0
2015-Sep-13 13:34N 40°40' W 074°05'0 0.0
2015-Sep-13 12:27N 40°40' W 074°05'0 0.0
2015-Sep-13 11:34N 40°40' W 074°05'0 0.0
2015-Sep-13 10:33N 40°40' W 074°05'0 0.0
2015-Sep-13 09:31N 40°40' W 074°05'0 0.0
2015-Sep-13 08:32N 40°40' W 074°05'0 0.0
2015-Sep-13 07:30N 40°40' W 074°05'0 0.0
2015-Sep-13 06:31N 40°40' W 074°05'0 0.0
2015-Sep-13 05:33N 40°40' W 074°05'0 0.0
2015-Sep-13 04:26N 40°40' W 074°05'0 0.0
2015-Sep-13 03:32N 40°40' W 074°05'0 0.0
2015-Sep-13 02:32N 40°40' W 074°05'0 0.0
2015-Sep-13 01:30N 40°40' W 074°05'0 0.0
2015-Sep-13 00:31N 40°40' W 074°05'0 0.0
2015-Sep-12 23:32N 40°40' W 074°05'0 0.0
2015-Sep-12 22:33N 40°40' W 074°05'0 0.0
2015-Sep-12 21:31N 40°40' W 074°05'0 0.0
2015-Sep-12 20:32N 40°40' W 074°05'0 0.0
2015-Sep-12 19:33N 40°40' W 074°05'0 0.0
2015-Sep-12 18:31N 40°40' W 074°05'0 0.0
2015-Sep-12 17:30N 40°40' W 074°05'0 0.0
2015-Sep-12 16:33N 40°40' W 074°05'0 0.0
2015-Sep-12 15:31N 40°40' W 074°05'0 0.0
2015-Sep-12 14:29N 40°40' W 074°05'0 0.0
2015-Sep-12 13:33N 40°40' W 074°05'0 0.0
2015-Sep-12 12:26N 40°40' W 074°05'0 0.0
2015-Sep-12 11:31N 40°40' W 074°05'0 0.0
2015-Sep-12 10:30N 40°40' W 074°05'0 0.0
2015-Sep-12 09:31N 40°40' W 074°05'0 0.0
2015-Sep-12 08:28N 40°40' W 074°05'0 0.0
2015-Sep-12 07:33N 40°40' W 074°05'0 0.0
2015-Sep-12 06:32N 40°40' W 074°05'0 0.0
2015-Sep-12 05:33N 40°40' W 074°05'0 0.0
2015-Sep-12 04:33N 40°40' W 074°05'0 0.0
2015-Sep-12 03:31N 40°40' W 074°05'0 0.0
2015-Sep-12 02:26N 40°40' W 074°05'0 0.0
2015-Sep-12 01:33N 40°40' W 074°05'0 0.0
2015-Sep-12 00:29N 40°40' W 074°05'0 0.0
2015-Sep-11 23:34N 40°40' W 074°05'0 0.0
2015-Sep-11 22:31N 40°40' W 074°05'0 0.0
2015-Sep-11 21:33N 40°40' W 074°05'0 0.0
2015-Sep-11 20:32N 40°40' W 074°05'0 0.0
2015-Sep-11 19:31N 40°40' W 074°05'0 0.0
2015-Sep-11 18:31N 40°40' W 074°05'0 0.0
2015-Sep-11 17:30N 40°40' W 074°05'0 0.0
2015-Sep-11 16:31N 40°40' W 074°05'0 0.0
2015-Sep-11 15:32N 40°40' W 074°05'0 0.0
2015-Sep-11 14:29N 40°40' W 074°05'0 0.0
2015-Sep-11 13:33N 40°40' W 074°05'0 0.0
2015-Sep-11 12:28N 40°40' W 074°05'0 0.0
2015-Sep-11 11:30N 40°40' W 074°05'0 0.0
2015-Sep-11 10:32N 40°40' W 074°05'0 0.0
2015-Sep-11 09:32N 40°40' W 074°05'0 0.0
2015-Sep-11 08:26N 40°40' W 074°05'0 0.0
2015-Sep-11 07:33N 40°40' W 074°05'0 0.0
2015-Sep-11 06:28N 40°40' W 074°05'0 0.0
2015-Sep-11 05:32N 40°40' W 074°05'0 0.0
2015-Sep-11 04:26N 40°40' W 074°05'0 0.0
2015-Sep-11 03:31N 40°40' W 074°05'0 0.0
2015-Sep-11 02:28N 40°40' W 074°05'0 0.0
2015-Sep-11 01:30N 40°40' W 074°05'0 0.0
2015-Sep-11 00:29N 40°40' W 074°05'0 0.0
2015-Sep-10 23:33N 40°40' W 074°05'0 0.0
2015-Sep-10 22:26N 40°40' W 074°05'0 0.0
2015-Sep-10 21:32N 40°40' W 074°05'0 0.0
2015-Sep-10 20:32N 40°40' W 074°05'0 0.0
2015-Sep-10 19:33N 40°40' W 074°05'0 0.0
2015-Sep-10 18:26N 40°40' W 074°05'0 0.0
2015-Sep-10 17:31N 40°40' W 074°05'0 0.0
2015-Sep-10 16:27N 40°40' W 074°05'0 0.0
2015-Sep-10 15:31N 40°40' W 074°05'0 0.0
2015-Sep-10 14:28N 40°40' W 074°05'0 0.0
2015-Sep-10 13:33N 40°40' W 074°05'0 0.0
2015-Sep-10 12:27N 40°40' W 074°05'0 0.0
2015-Sep-10 11:32N 40°40' W 074°05'0 0.0
2015-Sep-10 10:28N 40°40' W 074°05'0 0.0
2015-Sep-10 09:30N 40°40' W 074°05'0 0.0
2015-Sep-10 08:27N 40°40' W 074°05'0 0.0
2015-Sep-10 07:32N 40°40' W 074°05'0 0.0
2015-Sep-10 06:28N 40°40' W 074°05'0 0.0
2015-Sep-10 05:32N 40°40' W 074°05'0 0.0
2015-Sep-10 04:26N 40°40' W 074°05'0 0.0
2015-Sep-10 03:32N 40°40' W 074°05'0 0.0
2015-Sep-10 02:28N 40°40' W 074°05'0 0.0
2015-Sep-10 01:33N 40°40' W 074°05'0 0.0
2015-Sep-10 00:34N 40°40' W 074°05'0 0.0
2015-Sep-09 23:33N 40°40' W 074°05'0 0.0
2015-Sep-09 22:26N 40°40' W 074°05'0 0.0
2015-Sep-09 21:30N 40°40' W 074°05'0 0.0
2015-Sep-09 20:27N 40°40' W 074°05'0 0.0
2015-Sep-09 19:33N 40°40' W 074°05'0 0.0
2015-Sep-09 18:28N 40°40' W 074°05'0 0.0
2015-Sep-09 17:31N 40°40' W 074°05'0 0.0
2015-Sep-09 16:27N 40°40' W 074°05'0 0.0
2015-Sep-09 15:32N 40°40' W 074°05'0 0.0
2015-Sep-09 14:32N 40°40' W 074°05'0 0.0
2015-Sep-09 13:33N 40°40' W 074°05'0 0.0
2015-Sep-09 12:31N 40°40' W 074°05'0 0.0
2015-Sep-09 11:32N 40°40' W 074°05'0 0.0
2015-Sep-09 10:30N 40°40' W 074°05'0 0.0
2015-Sep-09 09:31N 40°40' W 074°05'0 0.0
2015-Sep-09 08:31N 40°40' W 074°05'0 0.0
2015-Sep-09 07:32N 40°40' W 074°05'0 0.0
2015-Sep-09 06:29N 40°40' W 074°05'0 0.0
2015-Sep-09 05:26N 40°40' W 074°05'0 0.0
2015-Sep-09 04:32N 40°40' W 074°05'0 0.0
2015-Sep-09 03:30N 40°40' W 074°05'0 0.0
2015-Sep-09 02:32N 40°40' W 074°05'0 0.0
2015-Sep-09 01:31N 40°40' W 074°05'0 0.0
2015-Sep-09 00:33N 40°40' W 074°05'0 0.0
2015-Sep-08 23:32N 40°40' W 074°05'0 0.0
2015-Sep-08 22:30N 40°40' W 074°05'0 0.0
2015-Sep-08 21:33N 40°40' W 074°05'0 0.0
2015-Sep-08 20:33N 40°40' W 074°05'0 0.0
2015-Sep-08 19:26N 40°40' W 074°05'0 0.0
2015-Sep-08 18:27N 40°40' W 074°05'0 0.0
2015-Sep-08 17:32N 40°40' W 074°05'0 0.0
2015-Sep-08 16:30N 40°40' W 074°05'0 0.0
2015-Sep-08 15:30N 40°40' W 074°05'0 0.0
2015-Sep-08 14:28N 40°40' W 074°05'0 0.0
2015-Sep-08 13:26N 40°40' W 074°05'0 0.0
2015-Sep-08 12:29N 40°40' W 074°05'0 0.0
2015-Sep-08 11:26N 40°40' W 074°05'0 0.0
2015-Sep-08 10:29N 40°40' W 074°05'0 0.0
2015-Sep-08 09:33N 40°40' W 074°05'0 0.0
2015-Sep-08 08:31N 40°40' W 074°05'0 0.0
2015-Sep-08 07:32N 40°40' W 074°05'0 0.0
2015-Sep-08 06:30N 40°40' W 074°05'0 0.0
2015-Sep-08 05:33N 40°40' W 074°05'0 0.0
2015-Sep-08 04:33N 40°40' W 074°05'0 0.0
2015-Sep-08 03:31N 40°40' W 074°05'0 0.0
2015-Sep-08 02:31N 40°40' W 074°05'0 0.0
2015-Sep-08 01:30N 40°40' W 074°05'0 0.0
2015-Sep-08 00:31N 40°40' W 074°05'0 0.0
2015-Sep-07 23:31N 40°40' W 074°05'0 0.0
2015-Sep-07 22:30N 40°40' W 074°05'0 0.0
2015-Sep-07 21:33N 40°40' W 074°05'0 0.0
2015-Sep-07 20:33N 40°40' W 074°05'0 0.0
2015-Sep-07 19:31N 40°40' W 074°05'0 0.0
2015-Sep-07 18:32N 40°40' W 074°05'0 0.0
2015-Sep-07 17:32N 40°40' W 074°05'0 0.0
2015-Sep-07 16:29N 40°40' W 074°05'0 0.0
2015-Sep-07 15:31N 40°40' W 074°05'0 0.0
2015-Sep-07 14:30N 40°40' W 074°05'0 0.0
2015-Sep-07 13:26N 40°40' W 074°05'0 0.0
2015-Sep-07 12:31N 40°40' W 074°05'0 0.0
2015-Sep-07 11:32N 40°40' W 074°05'0 0.0
2015-Sep-07 10:31N 40°40' W 074°05'0 0.0
2015-Sep-07 09:32N 40°40' W 074°05'0 0.0
2015-Sep-07 08:32N 40°40' W 074°05'0 0.0
2015-Sep-07 07:33N 40°40' W 074°05'0 0.0
2015-Sep-07 06:32N 40°40' W 074°05'0 0.0
2015-Sep-07 05:31N 40°40' W 074°05'0 0.0
2015-Sep-07 04:31N 40°40' W 074°05'0 0.0
2015-Sep-07 03:31N 40°40' W 074°05'0 0.0
2015-Sep-07 02:33N 40°40' W 074°05'0 0.0
2015-Sep-07 01:32N 40°40' W 074°05'0 0.0
2015-Sep-07 00:27N 40°40' W 074°05'0 0.0
2015-Sep-06 23:33N 40°40' W 074°05'0 0.0
2015-Sep-06 23:18N 40°40' W 074°05'0 0.0
2015-Sep-06 22:29N 40°40' W 074°05'0 0.0
2015-Sep-06 21:31N 40°40' W 074°05'0 0.0
2015-Sep-06 20:27N 40°40' W 074°05'0 0.0
2015-Sep-06 19:31N 40°40' W 074°05'0 0.0
2015-Sep-06 18:31N 40°40' W 074°05'0 0.0
2015-Sep-06 17:33N 40°40' W 074°05'0 0.0
2015-Sep-06 16:33N 40°40' W 074°05'0 0.0
2015-Sep-06 15:31N 40°40' W 074°05'0 0.0
2015-Sep-06 14:27N 40°40' W 074°05'0 0.0
2015-Sep-06 13:32N 40°40' W 074°05'0 0.0
2015-Sep-06 12:33N 40°40' W 074°05'0 0.0
2015-Sep-06 11:33N 40°40' W 074°05'0 0.0
2015-Sep-06 10:30N 40°40' W 074°05'0 0.0
2015-Sep-06 09:32N 40°40' W 074°05'0 0.0
2015-Sep-06 08:27N 40°40' W 074°05'0 0.0
2015-Sep-06 07:32N 40°40' W 074°05'0 0.0
2015-Sep-06 06:30N 40°40' W 074°05'0 0.0
2015-Sep-06 05:32N 40°40' W 074°05'0 0.0
2015-Sep-06 04:33N 40°40' W 074°05'0 0.0
2015-Sep-06 03:31N 40°40' W 074°05'0 0.0
2015-Sep-06 02:31N 40°40' W 074°05'0 0.0
2015-Sep-06 01:32N 40°40' W 074°05'0 0.0
2015-Sep-06 00:30N 40°40' W 074°05'0 0.0
2015-Sep-05 23:31N 40°40' W 074°05'0 0.0
2015-Sep-05 22:30N 40°40' W 074°05'0 0.0
2015-Sep-05 21:26N 40°40' W 074°05'0 0.0
2015-Sep-05 20:17N 40°40' W 074°05'0 0.0
2015-Sep-05 19:22N 40°40' W 074°05'0 0.0
2015-Sep-05 18:29N 40°40' W 074°05'0 0.0
2015-Sep-05 17:23N 40°40' W 074°05'0 0.0
2015-Sep-05 16:29N 40°40' W 074°05'0 0.0
2015-Sep-05 15:31N 40°40' W 074°05'0 0.0
2015-Sep-05 14:27N 40°40' W 074°05'0 0.0
2015-Sep-05 13:33N 40°40' W 074°05'  
Track history (hours):
 
Tides and Currents Weather Stations Pressure Air Temp Water Temp Dewpoint Dewpoint Depression Visibility Wind Speed Wind Dir Waves Ship Positions

Grey Shark

Last reported at 2015-Sep-15 13:29 UTC. Time now 2016-May-30 16:28 UTC.
Position N 38°37' W 073°54'.
Warning: this ship's position is months out of date.

Length 110 m; draft 5.1 m.

Type: Cargo ship. MMSI: 371494000.

Date/timePositionNaut miles runAvg speedWind from/ knotsBaromVisibWave heightAir tempDewpointWater temp
2015-Sep-15 13:29N 38°37' W 073°54'12 9.5
2015-Sep-15 12:15N 38°49' W 073°54'6 8.6
2015-Sep-15 11:31N 38°55' W 073°54'10 8.6
2015-Sep-15 10:23N 39°05' W 073°53'10 9.0
2015-Sep-15 09:14N 39°15' W 073°53'6 9.1
2015-Sep-15 08:33N 39°21' W 073°53'9 9.1
2015-Sep-15 07:33N 39°30' W 073°52'9 9.1
2015-Sep-15 06:33N 39°40' W 073°51'9 9.1
2015-Sep-15 05:33N 39°49' W 073°51'9 9.0
2015-Sep-15 04:33N 39°58' W 073°50'20 9.0
2015-Sep-15 02:21N 40°18' W 073°49'7 8.9
2015-Sep-15 01:33N 40°25' W 073°49'9 8.6
2015-Sep-15 00:33N 40°30' W 073°58'8 7.6
2015-Sep-14 23:33N 40°37' W 074°03'4 3.6
2015-Sep-14 22:27N 40°40' W 074°05'0 0.0
2015-Sep-14 21:31N 40°40' W 074°05'0 0.0
2015-Sep-14 20:29N 40°40' W 074°05'0 0.0
2015-Sep-14 19:33N 40°40' W 074°05'0 0.0
2015-Sep-14 18:33N 40°40' W 074°05'0 0.0
2015-Sep-14 17:32N 40°40' W 074°05'0 0.0
2015-Sep-14 16:30N 40°40' W 074°05'0 0.0
2015-Sep-14 15:34N 40°40' W 074°05'0 0.0
2015-Sep-14 14:29N 40°40' W 074°05'0 0.0
2015-Sep-14 13:32N 40°40' W 074°05'0 0.0
2015-Sep-14 12:26N 40°40' W 074°05'0 0.0
2015-Sep-14 11:33N 40°40' W 074°05'0 0.0
2015-Sep-14 10:32N 40°40' W 074°05'0 0.0
2015-Sep-14 09:32N 40°40' W 074°05'0 0.0
2015-Sep-14 08:33N 40°40' W 074°05'0 0.0
2015-Sep-14 07:31N 40°40' W 074°05'0 0.0
2015-Sep-14 06:27N 40°40' W 074°05'0 0.0
2015-Sep-14 05:31N 40°40' W 074°05'0 0.0
2015-Sep-14 04:27N 40°40' W 074°05'0 0.0
2015-Sep-14 03:31N 40°40' W 074°05'0 0.0
2015-Sep-14 02:32N 40°40' W 074°05'0 0.0
2015-Sep-14 01:32N 40°40' W 074°05'0 0.0
2015-Sep-14 00:33N 40°40' W 074°05'0 0.0
2015-Sep-13 23:30N 40°40' W 074°05'0 0.0
2015-Sep-13 22:26N 40°40' W 074°05'0 0.0
2015-Sep-13 21:32N 40°40' W 074°05'0 0.0
2015-Sep-13 20:30N 40°40' W 074°05'0 0.0
2015-Sep-13 19:32N 40°40' W 074°05'0 0.0
2015-Sep-13 18:29N 40°40' W 074°05'0 0.0
2015-Sep-13 17:30N 40°40' W 074°05'0 0.0
2015-Sep-13 16:32N 40°40' W 074°05'0 0.0
2015-Sep-13 15:31N 40°40' W 074°05'0 0.0
2015-Sep-13 14:26N 40°40' W 074°05'0 0.0
2015-Sep-13 13:34N 40°40' W 074°05'0 0.0
2015-Sep-13 12:27N 40°40' W 074°05'0 0.0
2015-Sep-13 11:34N 40°40' W 074°05'0 0.0
2015-Sep-13 10:33N 40°40' W 074°05'0 0.0
2015-Sep-13 09:31N 40°40' W 074°05'0 0.0
2015-Sep-13 08:32N 40°40' W 074°05'0 0.0
2015-Sep-13 07:30N 40°40' W 074°05'0 0.0
2015-Sep-13 06:31N 40°40' W 074°05'0 0.0
2015-Sep-13 05:33N 40°40' W 074°05'0 0.0
2015-Sep-13 04:26N 40°40' W 074°05'0 0.0
2015-Sep-13 03:32N 40°40' W 074°05'0 0.0
2015-Sep-13 02:32N 40°40' W 074°05'0 0.0
2015-Sep-13 01:30N 40°40' W 074°05'0 0.0
2015-Sep-13 00:31N 40°40' W 074°05'0 0.0
2015-Sep-12 23:32N 40°40' W 074°05'0 0.0
2015-Sep-12 22:33N 40°40' W 074°05'0 0.0
2015-Sep-12 21:31N 40°40' W 074°05'0 0.0
2015-Sep-12 20:32N 40°40' W 074°05'0 0.0
2015-Sep-12 19:33N 40°40' W 074°05'0 0.0
2015-Sep-12 18:31N 40°40' W 074°05'0 0.0
2015-Sep-12 17:30N 40°40' W 074°05'0 0.0
2015-Sep-12 16:33N 40°40' W 074°05'0 0.0
2015-Sep-12 15:31N 40°40' W 074°05'0 0.0
2015-Sep-12 14:29N 40°40' W 074°05'0 0.0
2015-Sep-12 13:33N 40°40' W 074°05'0 0.0
2015-Sep-12 12:26N 40°40' W 074°05'0 0.0
2015-Sep-12 11:31N 40°40' W 074°05'0 0.0
2015-Sep-12 10:30N 40°40' W 074°05'0 0.0
2015-Sep-12 09:31N 40°40' W 074°05'0 0.0
2015-Sep-12 08:28N 40°40' W 074°05'0 0.0
2015-Sep-12 07:33N 40°40' W 074°05'0 0.0
2015-Sep-12 06:32N 40°40' W 074°05'0 0.0
2015-Sep-12 05:33N 40°40' W 074°05'0 0.0
2015-Sep-12 04:33N 40°40' W 074°05'0 0.0
2015-Sep-12 03:31N 40°40' W 074°05'0 0.0
2015-Sep-12 02:26N 40°40' W 074°05'0 0.0
2015-Sep-12 01:33N 40°40' W 074°05'0 0.0
2015-Sep-12 00:29N 40°40' W 074°05'0 0.0
2015-Sep-11 23:34N 40°40' W 074°05'0 0.0
2015-Sep-11 22:31N 40°40' W 074°05'0 0.0
2015-Sep-11 21:33N 40°40' W 074°05'0 0.0
2015-Sep-11 20:32N 40°40' W 074°05'0 0.0
2015-Sep-11 19:31N 40°40' W 074°05'0 0.0
2015-Sep-11 18:31N 40°40' W 074°05'0 0.0
2015-Sep-11 17:30N 40°40' W 074°05'0 0.0
2015-Sep-11 16:31N 40°40' W 074°05'0 0.0
2015-Sep-11 15:32N 40°40' W 074°05'0 0.0
2015-Sep-11 14:29N 40°40' W 074°05'0 0.0
2015-Sep-11 13:33N 40°40' W 074°05'0 0.0
2015-Sep-11 12:28N 40°40' W 074°05'0 0.0
2015-Sep-11 11:30N 40°40' W 074°05'0 0.0
2015-Sep-11 10:32N 40°40' W 074°05'0 0.0
2015-Sep-11 09:32N 40°40' W 074°05'0 0.0
2015-Sep-11 08:26N 40°40' W 074°05'0 0.0
2015-Sep-11 07:33N 40°40' W 074°05'0 0.0
2015-Sep-11 06:28N 40°40' W 074°05'0 0.0
2015-Sep-11 05:32N 40°40' W 074°05'0 0.0
2015-Sep-11 04:26N 40°40' W 074°05'0 0.0
2015-Sep-11 03:31N 40°40' W 074°05'0 0.0
2015-Sep-11 02:28N 40°40' W 074°05'0 0.0
2015-Sep-11 01:30N 40°40' W 074°05'0 0.0
2015-Sep-11 00:29N 40°40' W 074°05'0 0.0
2015-Sep-10 23:33N 40°40' W 074°05'0 0.0
2015-Sep-10 22:26N 40°40' W 074°05'0 0.0
2015-Sep-10 21:32N 40°40' W 074°05'0 0.0
2015-Sep-10 20:32N 40°40' W 074°05'0 0.0
2015-Sep-10 19:33N 40°40' W 074°05'0 0.0
2015-Sep-10 18:26N 40°40' W 074°05'0 0.0
2015-Sep-10 17:31N 40°40' W 074°05'0 0.0
2015-Sep-10 16:27N 40°40' W 074°05'0 0.0
2015-Sep-10 15:31N 40°40' W 074°05'0 0.0
2015-Sep-10 14:28N 40°40' W 074°05'0 0.0
2015-Sep-10 13:33N 40°40' W 074°05'0 0.0
2015-Sep-10 12:27N 40°40' W 074°05'0 0.0
2015-Sep-10 11:32N 40°40' W 074°05'0 0.0
2015-Sep-10 10:28N 40°40' W 074°05'0 0.0
2015-Sep-10 09:30N 40°40' W 074°05'0 0.0
2015-Sep-10 08:27N 40°40' W 074°05'0 0.0
2015-Sep-10 07:32N 40°40' W 074°05'0 0.0
2015-Sep-10 06:28N 40°40' W 074°05'0 0.0
2015-Sep-10 05:32N 40°40' W 074°05'0 0.0
2015-Sep-10 04:26N 40°40' W 074°05'0 0.0
2015-Sep-10 03:32N 40°40' W 074°05'0 0.0
2015-Sep-10 02:28N 40°40' W 074°05'0 0.0
2015-Sep-10 01:33N 40°40' W 074°05'0 0.0
2015-Sep-10 00:34N 40°40' W 074°05'0 0.0
2015-Sep-09 23:33N 40°40' W 074°05'0 0.0
2015-Sep-09 22:26N 40°40' W 074°05'0 0.0
2015-Sep-09 21:30N 40°40' W 074°05'0 0.0
2015-Sep-09 20:27N 40°40' W 074°05'0 0.0
2015-Sep-09 19:33N 40°40' W 074°05'0 0.0
2015-Sep-09 18:28N 40°40' W 074°05'0 0.0
2015-Sep-09 17:31N 40°40' W 074°05'0 0.0
2015-Sep-09 16:27N 40°40' W 074°05'0 0.0
2015-Sep-09 15:32N 40°40' W 074°05'0 0.0
2015-Sep-09 14:32N 40°40' W 074°05'0 0.0
2015-Sep-09 13:33N 40°40' W 074°05'0 0.0
2015-Sep-09 12:31N 40°40' W 074°05'0 0.0
2015-Sep-09 11:32N 40°40' W 074°05'0 0.0
2015-Sep-09 10:30N 40°40' W 074°05'0 0.0
2015-Sep-09 09:31N 40°40' W 074°05'0 0.0
2015-Sep-09 08:31N 40°40' W 074°05'0 0.0
2015-Sep-09 07:32N 40°40' W 074°05'0 0.0
2015-Sep-09 06:29N 40°40' W 074°05'0 0.0
2015-Sep-09 05:26N 40°40' W 074°05'0 0.0
2015-Sep-09 04:32N 40°40' W 074°05'0 0.0
2015-Sep-09 03:30N 40°40' W 074°05'0 0.0
2015-Sep-09 02:32N 40°40' W 074°05'0 0.0
2015-Sep-09 01:31N 40°40' W 074°05'0 0.0
2015-Sep-09 00:33N 40°40' W 074°05'0 0.0
2015-Sep-08 23:32N 40°40' W 074°05'0 0.0
2015-Sep-08 22:30N 40°40' W 074°05'0 0.0
2015-Sep-08 21:33N 40°40' W 074°05'0 0.0
2015-Sep-08 20:33N 40°40' W 074°05'0 0.0
2015-Sep-08 19:26N 40°40' W 074°05'0 0.0
2015-Sep-08 18:27N 40°40' W 074°05'0 0.0
2015-Sep-08 17:32N 40°40' W 074°05'0 0.0
2015-Sep-08 16:30N 40°40' W 074°05'0 0.0
2015-Sep-08 15:30N 40°40' W 074°05'0 0.0
2015-Sep-08 14:28N 40°40' W 074°05'0 0.0
2015-Sep-08 13:26N 40°40' W 074°05'0 0.0
2015-Sep-08 12:29N 40°40' W 074°05'0 0.0
2015-Sep-08 11:26N 40°40' W 074°05'0 0.0
2015-Sep-08 10:29N 40°40' W 074°05'0 0.0
2015-Sep-08 09:33N 40°40' W 074°05'0 0.0
2015-Sep-08 08:31N 40°40' W 074°05'0 0.0
2015-Sep-08 07:32N 40°40' W 074°05'0 0.0
2015-Sep-08 06:30N 40°40' W 074°05'0 0.0
2015-Sep-08 05:33N 40°40' W 074°05'0 0.0
2015-Sep-08 04:33N 40°40' W 074°05'0 0.0
2015-Sep-08 03:31N 40°40' W 074°05'0 0.0
2015-Sep-08 02:31N 40°40' W 074°05'0 0.0
2015-Sep-08 01:30N 40°40' W 074°05'0 0.0
2015-Sep-08 00:31N 40°40' W 074°05'0 0.0
2015-Sep-07 23:31N 40°40' W 074°05'0 0.0
2015-Sep-07 22:30N 40°40' W 074°05'0 0.0
2015-Sep-07 21:33N 40°40' W 074°05'0 0.0
2015-Sep-07 20:33N 40°40' W 074°05'0 0.0
2015-Sep-07 19:31N 40°40' W 074°05'0 0.0
2015-Sep-07 18:32N 40°40' W 074°05'0 0.0
2015-Sep-07 17:32N 40°40' W 074°05'0 0.0
2015-Sep-07 16:29N 40°40' W 074°05'0 0.0
2015-Sep-07 15:31N 40°40' W 074°05'0 0.0
2015-Sep-07 14:30N 40°40' W 074°05'0 0.0
2015-Sep-07 13:26N 40°40' W 074°05'0 0.0
2015-Sep-07 12:31N 40°40' W 074°05'0 0.0
2015-Sep-07 11:32N 40°40' W 074°05'0 0.0
2015-Sep-07 10:31N 40°40' W 074°05'0 0.0
2015-Sep-07 09:32N 40°40' W 074°05'0 0.0
2015-Sep-07 08:32N 40°40' W 074°05'0 0.0
2015-Sep-07 07:33N 40°40' W 074°05'0 0.0
2015-Sep-07 06:32N 40°40' W 074°05'0 0.0
2015-Sep-07 05:31N 40°40' W 074°05'0 0.0
2015-Sep-07 04:31N 40°40' W 074°05'0 0.0
2015-Sep-07 03:31N 40°40' W 074°05'0 0.0
2015-Sep-07 02:33N 40°40' W 074°05'0 0.0
2015-Sep-07 01:32N 40°40' W 074°05'0 0.0
2015-Sep-07 00:27N 40°40' W 074°05'0 0.0
2015-Sep-06 23:33N 40°40' W 074°05'0 0.0
2015-Sep-06 23:18N 40°40' W 074°05'0 0.0
2015-Sep-06 22:29N 40°40' W 074°05'0 0.0
2015-Sep-06 21:31N 40°40' W 074°05'0 0.0
2015-Sep-06 20:27N 40°40' W 074°05'0 0.0
2015-Sep-06 19:31N 40°40' W 074°05'0 0.0
2015-Sep-06 18:31N 40°40' W 074°05'0 0.0
2015-Sep-06 17:33N 40°40' W 074°05'0 0.0
2015-Sep-06 16:33N 40°40' W 074°05'0 0.0
2015-Sep-06 15:31N 40°40' W 074°05'0 0.0
2015-Sep-06 14:27N 40°40' W 074°05'0 0.0
2015-Sep-06 13:32N 40°40' W 074°05'0 0.0
2015-Sep-06 12:33N 40°40' W 074°05'0 0.0
2015-Sep-06 11:33N 40°40' W 074°05'0 0.0
2015-Sep-06 10:30N 40°40' W 074°05'0 0.0
2015-Sep-06 09:32N 40°40' W 074°05'0 0.0
2015-Sep-06 08:27N 40°40' W 074°05'0 0.0
2015-Sep-06 07:32N 40°40' W 074°05'0 0.0
2015-Sep-06 06:30N 40°40' W 074°05'0 0.0
2015-Sep-06 05:32N 40°40' W 074°05'0 0.0
2015-Sep-06 04:33N 40°40' W 074°05'0 0.0
2015-Sep-06 03:31N 40°40' W 074°05'0 0.0
2015-Sep-06 02:31N 40°40' W 074°05'0 0.0
2015-Sep-06 01:32N 40°40' W 074°05'0 0.0
2015-Sep-06 00:30N 40°40' W 074°05'0 0.0
2015-Sep-05 23:31N 40°40' W 074°05'0 0.0
2015-Sep-05 22:30N 40°40' W 074°05'0 0.0
2015-Sep-05 21:26N 40°40' W 074°05'0 0.0
2015-Sep-05 20:17N 40°40' W 074°05'0 0.0
2015-Sep-05 19:22N 40°40' W 074°05'0 0.0
2015-Sep-05 18:29N 40°40' W 074°05'0 0.0
2015-Sep-05 17:23N 40°40' W 074°05'0 0.0
2015-Sep-05 16:29N 40°40' W 074°05'0 0.0
2015-Sep-05 15:31N 40°40' W 074°05'0 0.0
2015-Sep-05 14:27N 40°40' W 074°05'0 0.0
2015-Sep-05 13:33N 40°40' W 074°05'  

Dump ship's entire track history